Time;durP1;ratioP1;P1;durP2;ratioP2;P2;SDS_P1;SDS_P2;PMS_P1;PMS_P2;Temp;Humidity;BMP_temperature;BMP_pressure;BME280_temperature;BME280_humidity;BME280_pressure;Samples;Min_cycle;Max_cycle;Signal;HPM_P1;HPM_P2
2023/05/19 00:02:45;;;;;;;6.40;4.30;;;;;;;11.89;72.47;101273.57;130928;1254;107550;-80
2023/05/19 00:05:52;;;;;;;6.50;4.40;;;;;;;11.87;72.53;101275.02;130902;1253;106677;-79
2023/05/19 00:09:00;;;;;;;8.30;5.20;;;;;;;11.89;72.96;101274.50;130799;1256;107547;-80
2023/05/19 00:12:06;;;;;;;5.80;4.40;;;;;;;11.92;73.00;101277.27;130947;1256;107243;-80
2023/05/19 00:15:14;;;;;;;7.40;5.00;;;;;;;11.93;73.00;101278.39;130861;1256;107539;-80
2023/05/19 00:18:20;;;;;;;7.70;5.50;;;;;;;11.93;73.00;101275.23;130956;1256;107364;-80
2023/05/19 00:21:26;;;;;;;6.60;4.50;;;;;;;11.93;73.26;101277.02;130775;1253;107538;-79
2023/05/19 00:24:31;;;;;;;7.00;5.00;;;;;;;11.93;73.34;101276.62;130990;1253;107394;-79
2023/05/19 00:27:37;;;;;;;6.50;4.10;;;;;;;11.91;73.32;101274.31;130929;1256;106039;-79
2023/05/19 00:30:42;;;;;;;5.30;4.00;;;;;;;11.90;73.37;101273.70;130818;1257;107541;-79
2023/05/19 00:33:48;;;;;;;6.70;4.30;;;;;;;11.90;73.50;101272.24;130999;1253;107492;-79
2023/05/19 00:36:53;;;;;;;6.90;4.30;;;;;;;11.91;73.68;101272.73;130932;1255;107533;-79
2023/05/19 00:39:59;;;;;;;7.00;4.60;;;;;;;11.91;73.84;101268.96;130895;1253;107214;-80
2023/05/19 00:43:07;;;;;;;6.50;4.90;;;;;;;11.93;73.78;101271.16;130949;1256;107045;-79
2023/05/19 00:46:12;;;;;;;6.50;4.60;;;;;;;11.94;74.09;101273.20;131021;1256;107427;-80
2023/05/19 00:49:18;;;;;;;5.40;3.90;;;;;;;11.93;74.02;101268.98;131080;1256;107540;-80
2023/05/19 00:52:23;;;;;;;8.30;4.90;;;;;;;11.92;74.41;101268.58;130942;1259;107497;-80
2023/05/19 00:55:33;;;;;;;8.00;5.30;;;;;;;11.93;74.38;101270.60;130945;1257;107464;-80
2023/05/19 00:58:39;;;;;;;7.30;5.50;;;;;;;11.95;74.24;101268.09;130681;1253;107548;-80
2023/05/19 01:01:47;;;;;;;7.50;5.20;;;;;;;11.98;74.49;101269.59;130925;1252;107458;-80
2023/05/19 01:04:55;;;;;;;7.50;5.20;;;;;;;11.99;74.48;101268.05;130896;1256;107505;-80
2023/05/19 01:08:00;;;;;;;8.70;5.70;;;;;;;11.99;74.74;101270.08;130768;1257;107475;-79
2023/05/19 01:11:07;;;;;;;10.80;5.10;;;;;;;11.97;74.51;101271.25;130926;1256;106515;-79
2023/05/19 01:14:13;;;;;;;6.40;4.30;;;;;;;11.94;74.74;101269.35;131035;1256;107462;-79
2023/05/19 01:17:26;;;;;;;7.10;4.80;;;;;;;11.92;74.80;101268.73;130910;1257;107484;-79
2023/05/19 01:20:39;;;;;;;7.40;4.90;;;;;;;11.92;74.81;101269.61;130990;1252;107533;-80
2023/05/19 01:23:49;;;;;;;;;;;;;;;11.92;75.05;101268.36;130910;1254;106631;-80
2023/05/19 01:27:17;;;;;;;9.50;5.30;;;;;;;11.95;75.02;101267.76;130705;1253;107483;-80
2023/05/19 01:30:30;;;;;;;8.20;5.20;;;;;;;11.96;75.10;101269.09;130934;1258;106176;-80
2023/05/19 01:33:34;;;;;;;;;;;;;;;11.95;75.37;101269.48;131005;1254;107554;-80
2023/05/19 01:36:44;;;;;;;59.90;23.40;;;;;;;11.94;75.23;101268.14;130877;1256;213575;-80
2023/05/19 01:39:52;;;;;;;51.80;19.10;;;;;;;11.89;75.41;101262.91;130965;1256;106574;-80
2023/05/19 01:43:00;;;;;;;16.50;7.60;;;;;;;11.77;76.03;101267.11;130922;1263;107782;-80
2023/05/19 01:46:06;;;;;;;39.30;14.10;;;;;;;11.71;75.69;101259.11;131031;1253;106325;-80
2023/05/19 01:49:13;;;;;;;40.40;15.20;;;;;;;11.72;75.97;101258.70;131007;1254;107500;-80
2023/05/19 01:52:20;;;;;;;27.60;12.80;;;;;;;11.75;76.12;101262.48;131036;1256;107391;-80
2023/05/19 01:55:26;;;;;;;23.70;12.40;;;;;;;11.70;76.20;101260.64;130947;1256;107380;-80
2023/05/19 01:58:43;;;;;;;25.10;14.80;;;;;;;11.66;76.68;101260.60;131031;1255;107352;-80
2023/05/19 02:01:55;;;;;;;9.10;6.60;;;;;;;11.59;76.28;101259.67;130929;1253;108670;-80
2023/05/19 02:05:08;;;;;;;7.40;5.10;;;;;;;11.51;76.93;101260.68;131071;1256;108079;-81
2023/05/19 02:08:20;;;;;;;7.00;5.00;;;;;;;11.40;77.12;101258.05;130716;1253;107556;-80
2023/05/19 02:11:31;;;;;;;7.60;5.00;;;;;;;11.33;77.07;101257.77;130938;1257;107506;-81
2023/05/19 02:14:45;;;;;;;8.00;4.60;;;;;;;11.33;76.68;101259.45;130912;1256;107487;-80
2023/05/19 02:17:53;;;;;;;7.20;4.40;;;;;;;11.34;76.50;101257.91;130975;1256;107657;-80
2023/05/19 02:20:58;;;;;;;5.20;4.10;;;;;;;11.38;76.57;101257.38;130800;1253;107237;-80
2023/05/19 02:24:05;;;;;;;6.30;4.50;;;;;;;11.36;76.61;101253.05;131044;1254;107274;-80
2023/05/19 02:27:11;;;;;;;5.90;3.80;;;;;;;11.36;76.45;101248.61;130969;1256;107387;-80
2023/05/19 02:30:16;;;;;;;4.10;3.20;;;;;;;11.32;76.65;101248.80;130975;1253;107338;-80
2023/05/19 02:33:23;;;;;;;5.60;3.50;;;;;;;11.30;76.61;101245.55;131151;1253;107510;-80
2023/05/19 02:36:29;;;;;;;6.40;3.50;;;;;;;11.35;76.91;101249.42;131080;1256;107505;-81
2023/05/19 02:39:34;;;;;;;4.90;3.40;;;;;;;11.40;76.50;101248.96;131335;1253;107259;-85
2023/05/19 02:42:40;;;;;;;4.40;3.30;;;;;;;11.43;76.80;101247.84;130634;1259;107536;-85
2023/05/19 02:45:46;;;;;;;4.00;3.20;;;;;;;11.43;76.46;101244.28;130876;1253;107444;-85
2023/05/19 02:48:51;;;;;;;4.50;3.40;;;;;;;11.41;76.49;101244.46;130990;1257;106684;-88
2023/05/19 02:51:57;;;;;;;5.30;2.90;;;;;;;11.38;76.75;101244.90;130909;1256;107413;-86
2023/05/19 02:55:02;;;;;;;4.70;2.90;;;;;;;11.33;76.56;101244.29;131017;1256;107482;-85
2023/05/19 02:58:08;;;;;;;6.40;3.50;;;;;;;11.34;76.84;101243.84;131114;1253;107266;-86
2023/05/19 03:01:13;;;;;;;3.90;3.10;;;;;;;11.32;77.17;101242.98;131324;1256;107586;-85
2023/05/19 03:04:19;;;;;;;4.50;3.20;;;;;;;11.28;76.88;101240.64;130959;1256;106837;-85
2023/05/19 03:07:25;;;;;;;4.20;3.00;;;;;;;11.25;77.28;101239.05;130710;1258;106140;-85
2023/05/19 03:10:31;;;;;;;4.60;3.30;;;;;;;11.22;77.03;101244.86;130915;1258;107567;-85
2023/05/19 03:13:37;;;;;;;4.50;3.20;;;;;;;11.20;77.36;101238.08;130826;1256;107343;-85
2023/05/19 03:16:42;;;;;;;4.90;3.10;;;;;;;11.17;77.26;101237.95;130895;1259;107354;-85
2023/05/19 03:19:48;;;;;;;4.20;3.10;;;;;;;11.13;77.85;101237.05;130871;1254;107544;-85
2023/05/19 03:22:55;;;;;;;5.90;3.00;;;;;;;11.13;77.53;101235.14;130988;1256;107552;-85
2023/05/19 03:26:03;;;;;;;4.30;3.20;;;;;;;11.19;77.43;101235.17;130982;1256;107511;-86
2023/05/19 03:29:08;;;;;;;4.10;3.20;;;;;;;11.28;77.72;101235.10;130919;1256;107432;-85
2023/05/19 03:32:15;;;;;;;5.30;3.50;;;;;;;11.27;77.55;101234.65;130964;1253;107261;-85
2023/05/19 03:35:21;;;;;;;5.00;3.30;;;;;;;11.23;77.76;101235.02;130854;1259;107377;-85
2023/05/19 03:38:27;;;;;;;4.20;3.20;;;;;;;11.22;77.55;101246.52;130875;1253;107532;-85
2023/05/19 03:41:36;;;;;;;5.80;3.20;;;;;;;11.25;77.80;101244.06;130988;1253;107462;-85
2023/05/19 03:44:43;;;;;;;4.30;3.30;;;;;;;11.30;77.77;101241.35;130947;1256;107368;-85
2023/05/19 03:47:48;;;;;;;5.50;3.90;;;;;;;11.33;77.80;101245.70;130819;1253;107484;-85
2023/05/19 03:51:33;;;;;;;5.20;3.70;;;;;;;11.38;77.69;101245.98;130953;1266;107523;-85
2023/05/19 03:54:47;;;;;;;5.40;3.70;;;;;;;11.41;77.41;101244.66;130997;1256;107534;-85
2023/05/19 03:57:53;;;;;;;5.80;3.70;;;;;;;11.38;77.47;101247.02;130815;1253;107514;-85
2023/05/19 04:00:59;;;;;;;5.10;4.20;;;;;;;11.34;77.95;101244.33;130764;1256;107472;-86
2023/05/19 04:04:04;;;;;;;5.20;3.60;;;;;;;11.30;77.86;101249.89;130853;1253;106864;-86
2023/05/19 04:07:10;;;;;;;4.70;3.10;;;;;;;11.27;78.56;101255.80;130994;1254;107511;-85
2023/05/19 04:10:16;;;;;;;5.00;3.80;;;;;;;11.28;78.10;101252.59;130858;1259;106574;-85
2023/05/19 04:13:22;;;;;;;7.20;3.90;;;;;;;11.33;78.47;101251.18;130964;1256;108016;-85
2023/05/19 04:16:28;;;;;;;5.20;3.70;;;;;;;11.34;78.10;101253.80;130819;1256;107516;-85
2023/05/19 04:19:33;;;;;;;7.60;4.20;;;;;;;11.33;78.53;101254.02;130967;1256;107596;-86
2023/05/19 04:22:40;;;;;;;5.00;3.70;;;;;;;11.32;78.24;101255.20;130963;1256;107446;-86
2023/05/19 04:25:47;;;;;;;4.50;3.20;;;;;;;11.30;78.57;101263.10;130904;1258;105997;-85
2023/05/19 04:28:55;;;;;;;4.90;3.60;;;;;;;11.28;78.65;101262.52;130923;1254;107465;-86
2023/05/19 04:32:05;;;;;;;5.60;3.40;;;;;;;11.27;78.90;101264.77;130930;1255;107382;-86
2023/05/19 04:35:12;;;;;;;4.80;3.60;;;;;;;11.23;79.25;101258.89;131030;1254;107515;-85
2023/05/19 04:38:18;;;;;;;5.00;3.60;;;;;;;11.25;79.52;101258.70;131048;1256;107230;-85
2023/05/19 04:41:24;;;;;;;5.50;3.90;;;;;;;11.28;79.39;101256.84;130956;1257;107462;-86
2023/05/19 04:44:30;;;;;;;5.70;4.00;;;;;;;11.28;80.04;101254.70;130970;1253;107489;-85
2023/05/19 04:47:36;;;;;;;5.40;4.00;;;;;;;11.29;79.47;101248.16;130949;1258;107532;-86
2023/05/19 04:50:42;;;;;;;7.10;4.00;;;;;;;11.35;79.88;101249.62;130943;1255;107498;-86
2023/05/19 04:53:48;;;;;;;5.10;4.00;;;;;;;11.41;80.42;101253.19;130877;1253;107511;-85
2023/05/19 04:56:54;;;;;;;5.30;4.00;;;;;;;11.44;80.58;101260.77;130841;1253;106564;-85
2023/05/19 04:59:59;;;;;;;6.20;4.50;;;;;;;11.46;80.78;101264.31;130972;1257;108006;-84
2023/05/19 05:03:07;;;;;;;6.30;4.40;;;;;;;11.50;80.30;101262.56;130939;1261;107498;-86
2023/05/19 05:06:13;;;;;;;6.40;4.80;;;;;;;11.56;80.68;101263.08;130998;1257;107455;-85
2023/05/19 05:09:19;;;;;;;5.80;4.80;;;;;;;11.58;80.52;101260.13;130969;1256;107505;-85
2023/05/19 05:12:25;;;;;;;6.20;4.70;;;;;;;11.59;80.92;101259.26;130885;1256;107463;-86
2023/05/19 05:15:32;;;;;;;6.60;4.60;;;;;;;11.58;81.99;101259.39;130847;1256;105697;-87
2023/05/19 05:18:40;;;;;;;7.40;4.40;;;;;;;11.60;81.49;101259.39;130957;1256;106510;-87
2023/05/19 05:21:47;;;;;;;7.70;5.30;;;;;;;11.69;82.00;101254.83;131012;1256;107558;-86
2023/05/19 05:24:55;;;;;;;6.10;4.60;;;;;;;11.75;81.76;101254.32;131018;1256;107463;-85
2023/05/19 05:28:03;;;;;;;6.00;4.70;;;;;;;11.87;81.96;101252.41;130892;1260;108122;-85
2023/05/19 05:31:10;;;;;;;6.10;4.80;;;;;;;11.86;81.69;101249.41;130905;1256;107499;-85
2023/05/19 05:34:16;;;;;;;7.20;4.80;;;;;;;11.93;81.72;101247.56;130971;1256;107448;-85
2023/05/19 05:37:22;;;;;;;7.40;4.10;;;;;;;11.92;81.76;101240.15;130888;1253;107412;-85
2023/05/19 05:40:27;;;;;;;5.80;4.10;;;;;;;12.04;81.67;101241.48;130905;1256;107539;-84
2023/05/19 05:43:33;;;;;;;5.80;4.20;;;;;;;12.22;81.37;101246.38;130805;1259;107505;-85
2023/05/19 05:46:42;;;;;;;6.00;4.30;;;;;;;12.40;81.04;101248.36;131039;1256;107415;-85
2023/05/19 05:49:55;;;;;;;5.20;3.60;;;;;;;12.41;80.89;101250.15;131156;1254;107556;-88
2023/05/19 05:53:06;;;;;;;6.60;4.10;;;;;;;12.35;80.94;101250.55;130922;1259;107204;-85
2023/05/19 05:56:14;;;;;;;6.90;3.70;;;;;;;12.35;80.73;101242.89;130823;1267;107822;-85
2023/05/19 05:59:27;;;;;;;3.90;3.00;;;;;;;12.41;80.74;101236.32;130912;1252;107445;-85
2023/05/19 06:02:33;;;;;;;3.50;2.70;;;;;;;12.46;80.37;101229.42;130935;1256;107440;-85
2023/05/19 06:05:39;;;;;;;4.20;2.90;;;;;;;12.68;80.10;101225.77;130939;1253;107636;-86
2023/05/19 06:26:03;;;;;;;3.80;2.40;;;;;;;13.49;78.66;101233.30;128473;1280;648551;-86
2023/05/19 06:29:09;;;;;;;5.30;2.70;;;;;;;13.53;77.92;101240.95;130298;1263;167750;-85
2023/05/19 06:32:15;;;;;;;3.60;2.70;;;;;;;13.45;78.05;101242.31;130535;1260;107512;-85
2023/05/19 06:35:21;;;;;;;3.30;2.60;;;;;;;13.41;78.23;101245.21;130447;1260;107486;-85
2023/05/19 06:38:26;;;;;;;3.00;2.50;;;;;;;13.28;78.34;101245.63;130825;1254;107332;-85
2023/05/19 06:41:33;;;;;;;4.40;2.50;;;;;;;13.29;77.86;101244.69;130878;1254;107455;-85
2023/05/19 06:44:39;;;;;;;3.40;2.60;;;;;;;13.41;78.13;101240.89;131228;1257;107375;-84
2023/05/19 06:47:48;;;;;;;4.00;2.50;;;;;;;13.55;78.21;101238.63;131505;1247;107465;-84
2023/05/19 06:50:55;;;;;;;3.80;2.60;;;;;;;13.75;78.11;101239.02;131653;1263;107316;-84
2023/05/19 06:54:01;;;;;;;4.50;2.60;;;;;;;13.80;77.46;101241.38;131354;1248;107500;-84
2023/05/19 06:57:07;;;;;;;3.70;2.30;;;;;;;13.75;77.65;101245.47;131547;1247;107366;-85
2023/05/19 07:00:15;;;;;;;3.10;2.40;;;;;;;13.66;76.96;101244.21;131402;1250;107520;-83
2023/05/19 07:03:22;;;;;;;2.60;2.30;;;;;;;13.54;77.24;101243.51;131699;1248;107786;-85
2023/05/19 07:06:30;;;;;;;2.70;2.40;;;;;;;13.52;77.47;101245.21;131524;1251;108084;-85
2023/05/19 07:09:36;;;;;;;7.50;2.40;;;;;;;13.41;77.10;101245.72;131559;1248;107420;-85
2023/05/19 07:12:42;;;;;;;2.80;2.30;;;;;;;13.29;77.20;101245.20;131489;1251;107344;-85
2023/05/19 07:15:48;;;;;;;3.60;2.90;;;;;;;13.37;77.48;101247.30;131553;1254;107473;-85
2023/05/19 07:18:54;;;;;;;4.40;2.40;;;;;;;13.51;76.93;101241.69;131491;1253;107429;-85
2023/05/19 07:22:00;;;;;;;2.90;2.20;;;;;;;13.62;76.78;101245.45;131534;1251;106020;-85
2023/05/19 07:25:07;;;;;;;3.50;2.60;;;;;;;13.71;76.54;101249.75;131558;1252;106582;-84
2023/05/19 07:28:12;;;;;;;4.00;2.40;;;;;;;13.79;76.72;101251.69;131523;1251;107538;-85
2023/05/19 07:31:18;;;;;;;6.00;2.90;;;;;;;13.87;76.42;101244.16;131543;1248;107285;-86
2023/05/19 07:34:24;;;;;;;3.70;2.80;;;;;;;13.85;76.53;101244.75;131627;1248;107333;-86
2023/05/19 07:37:29;;;;;;;4.40;2.80;;;;;;;13.87;76.51;101245.93;131354;1254;107244;-85
2023/05/19 07:40:35;;;;;;;4.30;2.30;;;;;;;13.82;76.25;101251.56;131407;1253;108633;-85
2023/05/19 07:43:40;;;;;;;3.10;2.50;;;;;;;13.72;75.88;101256.84;131466;1248;107335;-82
2023/05/19 07:46:46;;;;;;;8.90;5.50;;;;;;;13.58;76.00;101255.85;131430;1250;107521;-81
2023/05/19 07:49:51;;;;;;;4.60;3.00;;;;;;;13.49;76.48;101258.89;131398;1251;107518;-82
2023/05/19 07:52:57;;;;;;;3.70;2.70;;;;;;;13.42;76.37;101261.39;131540;1254;107482;-82
2023/05/19 07:56:02;;;;;;;4.00;2.70;;;;;;;13.39;76.34;101252.15;131546;1248;107229;-81
2023/05/19 07:59:08;;;;;;;4.20;2.70;;;;;;;13.45;76.44;101247.64;131437;1253;107514;-82
2023/05/19 08:02:13;;;;;;;4.30;2.60;;;;;;;13.52;76.14;101248.41;131421;1251;107378;-82
2023/05/19 08:05:19;;;;;;;4.60;3.00;;;;;;;13.53;75.96;101250.77;131363;1253;107200;-81
2023/05/19 08:08:25;;;;;;;6.20;3.20;;;;;;;13.60;76.17;101244.79;131448;1251;107501;-82
2023/05/19 08:11:31;;;;;;;4.50;3.20;;;;;;;13.64;76.25;101246.68;131400;1249;106255;-82
2023/05/19 08:14:36;;;;;;;11.20;4.30;;;;;;;13.62;75.96;101241.52;131387;1248;107236;-82
2023/05/19 08:17:42;;;;;;;4.80;3.30;;;;;;;13.60;76.15;101240.34;131392;1248;106539;-81
2023/05/19 08:20:47;;;;;;;4.80;3.40;;;;;;;13.60;76.02;101246.96;131313;1252;107514;-82
2023/05/19 08:23:52;;;;;;;5.10;3.40;;;;;;;13.58;75.86;101251.60;131361;1251;107231;-81
2023/05/19 08:26:58;;;;;;;4.80;3.20;;;;;;;13.54;75.74;101252.09;131444;1252;107509;-81
2023/05/19 08:30:04;;;;;;;4.80;3.70;;;;;;;13.51;75.95;101252.23;131418;1253;107581;-82
2023/05/19 08:33:09;;;;;;;4.80;4.20;;;;;;;13.50;75.88;101252.04;131444;1252;105965;-81
2023/05/19 08:36:15;;;;;;;5.00;3.60;;;;;;;13.52;75.77;101253.20;131362;1251;107532;-82
2023/05/19 08:39:25;;;;;;;8.10;6.60;;;;;;;13.60;75.96;101250.19;131314;1257;109283;-84
2023/05/19 08:42:31;;;;;;;5.70;4.20;;;;;;;13.72;75.76;101247.52;131165;1251;107222;-80
2023/05/19 08:45:39;;;;;;;5.40;3.90;;;;;;;13.85;75.73;101251.63;131460;1252;107264;-82
2023/05/19 08:48:47;;;;;;;5.20;3.80;;;;;;;13.97;75.69;101250.71;131303;1260;107238;-81
2023/05/19 08:52:00;;;;;;;5.20;3.90;;;;;;;14.05;75.53;101251.33;131351;1252;107236;-81
2023/05/19 08:55:15;;;;;;;5.50;3.90;;;;;;;14.09;74.98;101248.06;131360;1251;108480;-81
2023/05/19 08:58:22;;;;;;;5.60;3.90;;;;;;;14.04;74.81;101250.89;131376;1248;107516;-81
2023/05/19 09:01:29;;;;;;;5.90;4.70;;;;;;;13.97;75.24;101245.85;131426;1251;107457;-83
2023/05/19 09:04:35;;;;;;;7.30;4.60;;;;;;;14.02;75.29;101246.38;131455;1252;107618;-82
2023/05/19 09:07:42;;;;;;;7.50;5.40;;;;;;;14.06;75.07;101247.30;131518;1253;107623;-81
2023/05/19 09:10:47;;;;;;;5.80;4.50;;;;;;;14.08;75.30;101250.99;131516;1251;107440;-81
2023/05/19 09:13:53;;;;;;;8.60;4.70;;;;;;;14.08;74.86;101254.36;131523;1250;107619;-81
2023/05/19 09:16:59;;;;;;;9.90;4.40;;;;;;;14.13;75.12;101251.96;131527;1253;107403;-82
2023/05/19 09:20:09;;;;;;;5.00;3.80;;;;;;;14.22;74.49;101253.52;131444;1248;107428;-81
2023/05/19 09:23:17;;;;;;;6.20;4.20;;;;;;;14.19;74.77;101249.78;131490;1251;107361;-82
2023/05/19 09:26:23;;;;;;;7.20;4.40;;;;;;;14.20;74.74;101251.06;131344;1253;107507;-82
2023/05/19 09:29:28;;;;;;;5.60;4.40;;;;;;;14.22;74.58;101250.55;131416;1251;107417;-81
2023/05/19 09:32:36;;;;;;;6.60;4.70;;;;;;;14.22;74.62;101255.54;131558;1251;107536;-81
2023/05/19 09:35:46;;;;;;;7.00;5.00;;;;;;;14.24;74.81;101249.40;131417;1251;107251;-82
2023/05/19 09:38:53;;;;;;;8.30;5.00;;;;;;;14.24;74.74;101245.85;131404;1254;105989;-81
2023/05/19 09:41:58;;;;;;;6.90;4.50;;;;;;;14.22;74.68;101242.52;131360;1251;107594;-81
2023/05/19 09:45:05;;;;;;;46.70;20.90;;;;;;;14.18;74.42;101243.29;131482;1251;107547;-82
2023/05/19 09:48:11;;;;;;;15.30;8.50;;;;;;;14.10;74.58;101239.88;131389;1266;107238;-82
2023/05/19 09:51:17;;;;;;;10.40;7.30;;;;;;;14.06;74.40;101243.30;131419;1251;107403;-82
2023/05/19 09:54:24;;;;;;;28.20;20.70;;;;;;;14.00;74.40;101241.09;131359;1251;107538;-82
2023/05/19 09:57:36;;;;;;;185.10;108.10;;;;;;;13.92;74.43;101239.13;131425;1260;106538;-82
2023/05/19 10:00:40;;;;;;;;;;;;;;;13.92;74.77;101231.11;131377;1251;107503;-81
2023/05/19 10:03:46;;;;;;;16.40;10.90;;;;;;;13.97;74.65;101234.73;131400;1251;107245;-82
2023/05/19 10:06:53;;;;;;;11.60;7.90;;;;;;;13.99;74.53;101229.20;131417;1248;107537;-81
2023/05/19 10:09:59;;;;;;;16.20;10.40;;;;;;;14.00;74.64;101225.50;131330;1253;107482;-81
2023/05/19 10:13:05;;;;;;;9.60;6.50;;;;;;;14.03;74.77;101226.61;131380;1253;107243;-81
2023/05/19 10:16:12;;;;;;;8.30;5.60;;;;;;;14.09;74.72;101228.87;131457;1248;107398;-81
2023/05/19 10:19:20;;;;;;;6.70;5.60;;;;;;;14.14;74.59;101224.64;131402;1249;107444;-82
2023/05/19 10:22:27;;;;;;;8.90;6.70;;;;;;;14.14;74.72;101222.88;131498;1250;107327;-82
2023/05/19 10:25:35;;;;;;;9.90;7.10;;;;;;;14.13;74.59;101220.39;131480;1253;108133;-82
2023/05/19 10:28:42;;;;;;;7.70;6.30;;;;;;;14.12;74.64;101219.45;131481;1253;107395;-82
2023/05/19 10:31:50;;;;;;;11.10;7.80;;;;;;;14.08;74.59;101223.73;131358;1253;106556;-82
2023/05/19 10:35:18;;;;;;;9.60;6.80;;;;;;;14.02;74.88;101223.14;131403;1252;107383;-82
2023/05/19 10:38:33;;;;;;;9.80;6.60;;;;;;;14.05;74.94;101227.84;131292;1253;108209;-82
2023/05/19 10:41:45;;;;;;;8.40;5.00;;;;;;;14.10;74.72;101227.56;131497;1258;105942;-82
2023/05/19 10:45:03;;;;;;;7.90;5.40;;;;;;;14.08;74.65;101231.82;131421;1251;107946;-82
2023/05/19 10:48:13;;;;;;;9.40;6.50;;;;;;;14.13;74.73;101236.02;131478;1253;107525;-82
2023/05/19 10:51:19;;;;;;;10.50;6.30;;;;;;;14.17;74.65;101232.95;131380;1253;107534;-82
2023/05/19 10:54:42;;;;;;;8.10;5.90;;;;;;;14.19;74.82;101230.64;131428;1248;107506;-82
2023/05/19 10:57:56;;;;;;;9.30;5.60;;;;;;;14.12;74.81;101234.50;131605;1253;106212;-82
2023/05/19 11:01:06;;;;;;;9.20;6.10;;;;;;;14.07;74.69;101232.61;131578;1251;107491;-82
2023/05/19 11:04:14;;;;;;;7.50;5.90;;;;;;;14.07;74.72;101230.64;131452;1251;107217;-81
2023/05/19 11:07:21;;;;;;;8.90;6.40;;;;;;;14.10;74.73;101229.55;131493;1248;107566;-82
2023/05/19 11:10:26;;;;;;;8.80;6.50;;;;;;;14.14;74.80;101227.88;131419;1248;107484;-82
2023/05/19 11:13:32;;;;;;;11.90;6.80;;;;;;;14.22;74.90;101224.23;131486;1251;107584;-82
2023/05/19 11:16:40;;;;;;;9.60;6.60;;;;;;;14.31;74.82;101225.69;131614;1248;107523;-81
2023/05/19 11:19:55;;;;;;;8.80;6.30;;;;;;;14.35;74.67;101221.11;131570;1253;107362;-81
2023/05/19 11:23:06;;;;;;;8.20;6.00;;;;;;;14.40;74.87;101221.17;131468;1253;107228;-81
2023/05/19 11:26:12;;;;;;;8.30;5.60;;;;;;;14.42;74.63;101223.27;131431;1253;107640;-81
2023/05/19 11:29:18;;;;;;;9.50;6.50;;;;;;;14.42;74.68;101222.50;131490;1254;105533;-81
2023/05/19 11:32:28;;;;;;;9.00;6.90;;;;;;;14.40;74.78;101226.15;131399;1263;106522;-82
2023/05/19 11:35:35;;;;;;;9.10;6.60;;;;;;;14.38;74.78;101228.04;131430;1251;107519;-81
2023/05/19 11:38:40;;;;;;;7.80;6.20;;;;;;;14.42;74.88;101234.05;131481;1253;107517;-81
2023/05/19 11:41:46;;;;;;;8.50;6.40;;;;;;;14.49;74.81;101236.53;131260;1259;107533;-81
2023/05/19 11:44:55;;;;;;;8.90;7.00;;;;;;;14.58;74.71;101235.33;131415;1252;107564;-85
2023/05/19 11:48:01;;;;;;;9.90;7.10;;;;;;;14.62;74.59;101231.87;131486;1252;107566;-84
2023/05/19 11:51:07;;;;;;;11.40;7.40;;;;;;;14.70;74.80;101232.48;131525;1251;107421;-85
2023/05/19 11:54:13;;;;;;;10.90;7.20;;;;;;;14.77;74.58;101230.58;131397;1253;107540;-84
2023/05/19 11:57:18;;;;;;;10.10;7.30;;;;;;;14.84;74.63;101231.09;131228;1252;107492;-84
2023/05/19 12:00:25;;;;;;;17.40;11.70;;;;;;;14.93;74.03;101229.23;131345;1251;107481;-85
2023/05/19 12:03:31;;;;;;;11.80;8.20;;;;;;;14.89;74.23;101231.10;131340;1250;107492;-84
2023/05/19 12:06:37;;;;;;;15.50;10.40;;;;;;;14.88;74.11;101228.86;131376;1253;107541;-84
2023/05/19 12:09:44;;;;;;;18.20;12.30;;;;;;;14.75;74.32;101230.70;131511;1254;107529;-85
2023/05/19 12:12:50;;;;;;;15.10;11.60;;;;;;;14.68;74.44;101234.96;131489;1253;106378;-84
2023/05/19 12:16:01;;;;;;;11.20;7.80;;;;;;;14.55;74.24;101234.89;131596;1253;105574;-84
2023/05/19 12:19:08;;;;;;;11.50;8.90;;;;;;;14.57;74.52;101231.28;131419;1253;107168;-86
2023/05/19 12:22:14;;;;;;;11.00;7.00;;;;;;;14.56;74.45;101232.84;131580;1253;107389;-86
2023/05/19 12:25:20;;;;;;;8.20;6.40;;;;;;;14.39;74.54;101228.75;131527;1252;107536;-87
2023/05/19 12:28:26;;;;;;;11.00;7.30;;;;;;;14.30;74.60;101224.69;131502;1248;107242;-85
2023/05/19 12:31:32;;;;;;;10.10;7.70;;;;;;;14.32;74.74;101225.70;131434;1253;107325;-86
2023/05/19 12:34:38;;;;;;;10.80;7.50;;;;;;;14.38;74.86;101225.14;131466;1262;107189;-85
2023/05/19 12:37:44;;;;;;;9.80;7.60;;;;;;;14.37;74.74;101223.66;131656;1248;107557;-85
2023/05/19 12:40:51;;;;;;;12.30;7.50;;;;;;;14.38;74.91;101219.98;131514;1254;107498;-86
2023/05/19 12:43:57;;;;;;;9.60;7.50;;;;;;;14.40;75.06;101224.23;131572;1252;107241;-86
2023/05/19 12:47:07;;;;;;;12.10;7.70;;;;;;;14.39;75.24;101223.25;131491;1253;107279;-85
2023/05/19 12:50:13;;;;;;;10.30;7.80;;;;;;;14.45;75.33;101225.29;131545;1253;107450;-85
2023/05/19 12:53:19;;;;;;;11.90;7.40;;;;;;;14.39;75.12;101226.80;131500;1253;106984;-86
2023/05/19 12:56:27;;;;;;;12.10;7.40;;;;;;;14.27;75.58;101226.95;131639;1248;107209;-86
2023/05/19 12:59:35;;;;;;;10.90;7.30;;;;;;;14.24;75.49;101224.76;131478;1253;106677;-85
2023/05/19 13:02:58;;;;;;;11.60;8.60;;;;;;;14.22;75.61;101225.45;131584;1253;107489;-86
2023/05/19 13:06:04;;;;;;;12.00;7.80;;;;;;;14.11;75.62;101228.30;131605;1253;106682;-85
2023/05/19 13:09:10;;;;;;;9.90;6.20;;;;;;;14.01;75.90;101228.96;131430;1254;107549;-85
2023/05/19 13:12:15;;;;;;;10.30;6.60;;;;;;;14.02;75.74;101227.29;131356;1248;105942;-84
2023/05/19 13:15:22;;;;;;;9.80;6.80;;;;;;;14.12;75.83;101221.92;131750;1254;108063;-84
2023/05/19 13:18:30;;;;;;;12.70;7.80;;;;;;;14.25;75.83;101219.63;131369;1253;107550;-85
2023/05/19 13:21:36;;;;;;;10.40;7.80;;;;;;;14.24;75.90;101221.86;131445;1248;107929;-87
2023/05/19 13:24:41;;;;;;;11.50;7.90;;;;;;;14.21;76.33;101220.42;131400;1253;107505;-85
2023/05/19 13:27:48;;;;;;;9.10;7.00;;;;;;;14.21;75.96;101224.67;131376;1254;106618;-85
2023/05/19 13:30:53;;;;;;;11.60;8.40;;;;;;;14.22;76.27;101226.35;131428;1253;107456;-85
2023/05/19 13:33:59;;;;;;;11.90;9.30;;;;;;;14.11;76.20;101227.79;131477;1254;107227;-85
2023/05/19 13:37:08;;;;;;;14.70;9.20;;;;;;;13.97;76.51;101228.77;131403;1253;107203;-85
2023/05/19 13:40:15;;;;;;;13.80;9.50;;;;;;;13.91;76.80;101227.98;131641;1254;107262;-85
2023/05/19 13:43:21;;;;;;;12.40;8.40;;;;;;;13.92;77.07;101226.45;131465;1248;107525;-85
2023/05/19 13:46:26;;;;;;;11.60;8.60;;;;;;;13.92;77.04;101224.54;131430;1253;106828;-85
2023/05/19 13:49:32;;;;;;;17.90;11.40;;;;;;;13.94;76.79;101224.31;131411;1248;107507;-85
2023/05/19 13:52:37;;;;;;;14.60;10.00;;;;;;;14.01;76.95;101227.02;131580;1253;107266;-85
2023/05/19 13:55:43;;;;;;;15.10;8.90;;;;;;;14.04;76.84;101227.98;131448;1253;107521;-84
2023/05/19 13:58:48;;;;;;;12.90;9.30;;;;;;;14.01;76.98;101227.18;131451;1254;108690;-85
2023/05/19 14:01:54;;;;;;;16.50;10.50;;;;;;;13.96;77.24;101227.15;131526;1251;107478;-85
2023/05/19 14:05:00;;;;;;;15.10;8.60;;;;;;;13.89;77.26;101225.67;131501;1248;107561;-85
2023/05/19 14:08:07;;;;;;;10.70;7.50;;;;;;;13.87;77.39;101222.86;131587;1254;107457;-84
2023/05/19 14:11:20;;;;;;;13.40;8.10;;;;;;;13.89;77.75;101216.14;131508;1248;106388;-85
2023/05/19 14:14:25;;;;;;;14.70;9.40;;;;;;;13.99;77.36;101221.09;131475;1251;107519;-84
2023/05/19 14:17:31;;;;;;;12.70;8.70;;;;;;;14.13;77.54;101217.95;131396;1267;107261;-84
2023/05/19 14:20:36;;;;;;;13.10;8.90;;;;;;;14.23;77.29;101213.58;131428;1251;106663;-85
2023/05/19 14:23:42;;;;;;;12.40;8.60;;;;;;;14.32;77.02;101215.91;131306;1254;107212;-84
2023/05/19 14:26:48;;;;;;;12.60;8.80;;;;;;;14.27;77.02;101216.35;131372;1252;106147;-85